Terminal Aerodrome Forecast
Issued by NWS Columbia, SC

Home | Current Version | Previous Version | Text Only | Print | Product List | Glossary On
Versions: 1 2 3 4 5 6 7 8 9 10 11 12 13 14 15 16 17 18 19 20 21 22 23 24 25 26 27 28 29 30 31 32 33 34 35 36 37 38 39 40 41 42 43 44 45 46 47 48 49 50
000
FTUS42 KCAE 160400 AAB
TAFAGS
TAF AMD
KAGS 160432Z 1605/1624 00000KT 4SM BR VCSH OVC015
      TEMPO 1605/1607 -SHRA BKN009
     FM160700 00000KT 3SM BR OVC005
     FM161500 VRB03KT P6SM BKN015
     FM161700 VRB04KT P6SM BKN025
     FM161900 VRB05KT P6SM BKN040=

USA.gov is the U.S. government's official web portal to all federal, state and local government web resources and services.